| time (UTC) | temp F | wind direction | speed MPH | gust MPH | rain 1hr in | rain 24hr in | rain mn in | humidity % | barometer mb |
| 20260905101912 | -27 | 0.0 | 0.0 | 0.00 | 0.00 | 0.00 | 100 | 1216.3 | |
| 20260905101412 | -27 | 0.0 | 0.0 | 0.00 | 0.00 | 0.00 | 100 | 1216.3 | |
| 20260905100912 | 76 | 0.0 | 0.0 | 0.00 | 0.00 | 0.00 | 100 | 1216.3 | |
| 20260905100412 | 76 | 0.0 | 0.0 | 0.00 | 0.00 | 0.00 | 10 | 1026.6 | |
| 20260905095412 | 73 | 0.0 | 0.0 | 0.00 | 0.00 | 0.00 | 10 | 1026.7 | |
| 20260905094912 | -27 | 0.0 | 0.0 | 0.00 | 0.00 | 0.00 | 100 | -55.9 | |
| 20260905094412 | 72 | 0.0 | 0.0 | 0.00 | 0.00 | 0.00 | 10 | 1026.5 | |
| 20260905093911 | 71 | 0.0 | 0.0 | 0.00 | 0.00 | 0.00 | 10 | 1026.6 | |
| 20260905093412 | 71 | 0.0 | 0.0 | 0.00 | 0.00 | 0.00 | 10 | 1026.6 | |
| 20260905092912 | 71 | 0.0 | 0.0 | 0.00 | 0.00 | 0.00 | 10 | 1026.6 | |
| 20260905092412 | 72 | 0.0 | 0.0 | 0.00 | 0.00 | 0.00 | 10 | 1026.4 | |
| 20260905091912 | 73 | 0.0 | 0.0 | 0.00 | 0.00 | 0.00 | 10 | 1026.4 | |
| 20260905091411 | 73 | 0.0 | 0.0 | 0.00 | 0.00 | 0.00 | 10 | 1026.3 | |
| 20260905090912 | 72 | 0.0 | 0.0 | 0.00 | 0.00 | 0.00 | 10 | 1026.4 | |
| 20260905090412 | 72 | 0.0 | 0.0 | 0.00 | 0.00 | 0.00 | 10 | 1026.3 | |
| 20260905085412 | 71 | 0.0 | 0.0 | 0.00 | 0.00 | 0.00 | 10 | 1026.1 | |
| 20260905084412 | 71 | 0.0 | 0.0 | 0.00 | 0.00 | 0.00 | 10 | 1026.1 | |
| 20260905083912 | 71 | 0.0 | 0.0 | 0.00 | 0.00 | 0.00 | 10 | 1026.1 | |
| 20260905083412 | 71 | 0.0 | 0.0 | 0.00 | 0.00 | 0.00 | 10 | 1026.1 | |
| 20260905082911 | 71 | 0.0 | 0.0 | 0.00 | 0.00 | 0.00 | 10 | 1026.1 | |
| 20260905081912 | 70 | 0.0 | 0.0 | 0.00 | 0.00 | 0.00 | 10 | 1026.1 | |
| 20260905081412 | 70 | 0.0 | 0.0 | 0.00 | 0.00 | 0.00 | 10 | 1026.1 | |
| 20260905080913 | 70 | 0.0 | 0.0 | 0.00 | 0.00 | 0.00 | 10 | 1026.1 | |
| 20260905080412 | 69 | 0.0 | 0.0 | 0.00 | 0.00 | 0.00 | 10 | 1026.0 | |
| 20260905075911 | 69 | 0.0 | 0.0 | 0.00 | 0.00 | 0.00 | 10 | 1026.0 | |
| 20260905075412 | 68 | 0.0 | 0.0 | 0.00 | 0.00 | 0.00 | 10 | 1026.0 | |
| 20260905074911 | 68 | 0.0 | 0.0 | 0.00 | 0.00 | 0.00 | 10 | 1026.0 | |
| 20260905073912 | 67 | 0.0 | 0.0 | 0.00 | 0.00 | 0.00 | 10 | 1026.0 | |
| 20260905073412 | 67 | 0.0 | 0.0 | 0.00 | 0.00 | 0.00 | 10 | 1026.1 | |
| 20260905072913 | 67 | 0.0 | 0.0 | 0.00 | 0.00 | 0.00 | 10 | 1026.0 | |
| 20260905072412 | 67 | 0.0 | 0.0 | 0.00 | 0.00 | 0.00 | 10 | 1026.0 | |
| 20260905071912 | 67 | 0.0 | 0.0 | 0.00 | 0.00 | 0.00 | 10 | 1025.9 | |
| 20260905071412 | 67 | 0.0 | 0.0 | 0.00 | 0.00 | 0.00 | 10 | 1025.9 | |
| 20260905070913 | 67 | 0.0 | 0.0 | 0.00 | 0.00 | 0.00 | 10 | 1025.8 | |
| 20260905070412 | 67 | 0.0 | 0.0 | 0.00 | 0.00 | 0.00 | 10 | 1025.8 | |
| 20260905065913 | 67 | 0.0 | 0.0 | 0.00 | 0.00 | 0.00 | 10 | 1025.7 | |
| 20260905065411 | 67 | 0.0 | 0.0 | 0.00 | 0.00 | 0.00 | 10 | 1025.6 | |
| 20260905064911 | 67 | 0.0 | 0.0 | 0.00 | 0.00 | 0.00 | 10 | 1025.7 | |
| 20260905064411 | 67 | 0.0 | 0.0 | 0.00 | 0.00 | 0.00 | 10 | 1025.6 | |
| 20260905063912 | 67 | 0.0 | 0.0 | 0.00 | 0.00 | 0.00 | 10 | 1025.6 | |
| 20260905062912 | 66 | 0.0 | 0.0 | 0.00 | 0.00 | 0.00 | 10 | 1025.5 | |
| 20260905061912 | 67 | 0.0 | 0.0 | 0.00 | 0.00 | 0.00 | 10 | 1025.4 | |
| 20260905061412 | 67 | 0.0 | 0.0 | 0.00 | 0.00 | 0.00 | 10 | 1025.3 | |
| 20260905060913 | 67 | 0.0 | 0.0 | 0.00 | 0.00 | 0.00 | 10 | 1025.3 | |
| 20260905060413 | 67 | 0.0 | 0.0 | 0.00 | 0.00 | 0.00 | 10 | 1025.2 | |
| 20260905055912 | 66 | 0.0 | 0.0 | 0.00 | 0.00 | 0.00 | 10 | 1025.1 | |
| 20260905054912 | 66 | 0.0 | 0.0 | 0.00 | 0.00 | 0.00 | 10 | 1025.1 | |
| 20260905054412 | 66 | 0.0 | 0.0 | 0.00 | 0.00 | 0.00 | 10 | 1025.0 | |
| 20260905053912 | 66 | 0.0 | 0.0 | 0.00 | 0.00 | 0.00 | 10 | 1024.9 | |
| 20260905053411 | 66 | 0.0 | 0.0 | 0.00 | 0.00 | 0.00 | 10 | 1024.8 | |
| 20260905052911 | 66 | 0.0 | 0.0 | 0.00 | 0.00 | 0.00 | 10 | 1024.7 | |
| 20260905052412 | 66 | 0.0 | 0.0 | 0.00 | 0.00 | 0.00 | 10 | 1024.7 | |
| 20260905051411 | 66 | 0.0 | 0.0 | 0.00 | 0.00 | 0.00 | 10 | 1024.6 | |
| 20260905050911 | 66 | 0.0 | 0.0 | 0.00 | 0.00 | 0.00 | 10 | 1024.5 | |
| 20260905050412 | 66 | 0.0 | 0.0 | 0.00 | 0.00 | 0.00 | 10 | 1024.5 | |
| 20260905045912 | 66 | 0.0 | 0.0 | 0.00 | 0.00 | 0.00 | 10 | 1024.5 | |
| 20260905045412 | 66 | 0.0 | 0.0 | 0.00 | 0.00 | 0.00 | 10 | 1024.5 | |
| 20260905044911 | 66 | 0.0 | 0.0 | 0.00 | 0.00 | 0.00 | 10 | 1024.4 | |
| 20260905043411 | 66 | 0.0 | 0.0 | 0.00 | 0.00 | 0.00 | 10 | 1024.3 | |
| 20260905042911 | 66 | 0.0 | 0.0 | 0.00 | 0.00 | 0.00 | 10 | 1024.3 | |
| 20260905042411 | 66 | 0.0 | 0.0 | 0.00 | 0.00 | 0.00 | 10 | 1024.2 | |
| 20260905041912 | 65 | 0.0 | 0.0 | 0.00 | 0.00 | 0.00 | 10 | 1024.2 | |
| 20260905041412 | 65 | 0.0 | 0.0 | 0.00 | 0.00 | 0.00 | 10 | 1024.2 | |
| 20260905040412 | 65 | 0.0 | 0.0 | 0.00 | 0.00 | 0.00 | 10 | 1024.1 | |
| 20260905035411 | 65 | 0.0 | 0.0 | 0.00 | 0.00 | 0.00 | 10 | 1024.1 | |
| 20260905034912 | 65 | 0.0 | 0.0 | 0.00 | 0.00 | 0.00 | 10 | 1024.0 | |
| 20260905034412 | 64 | 0.0 | 0.0 | 0.00 | 0.00 | 0.00 | 10 | 1024.0 | |
| 20260905033912 | 64 | 0.0 | 0.0 | 0.00 | 0.00 | 0.00 | 10 | 1023.9 | |
| 20260905033412 | 64 | 0.0 | 0.0 | 0.00 | 0.00 | 0.00 | 10 | 1023.9 | |
| 20260905032412 | 64 | 0.0 | 0.0 | 0.00 | 0.00 | 0.00 | 10 | 1023.8 | |
| 20260905031911 | 64 | 0.0 | 0.0 | 0.00 | 0.00 | 0.00 | 10 | 1023.8 | |
| 20260905031411 | 64 | 0.0 | 0.0 | 0.00 | 0.00 | 0.00 | 10 | 1023.7 | |
| 20260905025913 | 64 | 0.0 | 0.0 | 0.00 | 0.00 | 0.00 | 10 | 1023.8 | |
| 20260905025414 | 64 | 0.0 | 0.0 | 0.00 | 0.00 | 0.00 | 10 | 1023.9 | |
| 20260905024915 | 64 | 0.0 | 0.0 | 0.00 | 0.00 | 0.00 | 10 | 1023.8 | |
| 20260905024412 | 64 | 0.0 | 0.0 | 0.00 | 0.00 | 0.00 | 10 | 1023.6 | |
| 20260905023912 | 64 | 0.0 | 0.0 | 0.00 | 0.00 | 0.00 | 10 | 1023.6 | |
| 20260905023411 | 64 | 0.0 | 0.0 | 0.00 | 0.00 | 0.00 | 10 | 1023.7 | |
| 20260905022412 | 64 | 0.0 | 0.0 | 0.00 | 0.00 | 0.00 | 10 | 1023.6 | |
| 20260905021412 | 64 | 0.0 | 0.0 | 0.00 | 0.00 | 0.00 | 10 | 1023.4 | |
| 20260905015912 | 64 | 0.0 | 0.0 | 0.00 | 0.00 | 0.00 | 10 | 1023.3 | |
| 20260905015412 | 64 | 0.0 | 0.0 | 0.00 | 0.00 | 0.00 | 10 | 1023.2 | |
| 20260905014913 | 64 | 0.0 | 0.0 | 0.00 | 0.00 | 0.00 | 10 | 1023.4 | |
| 20260905014413 | 64 | 0.0 | 0.0 | 0.00 | 0.00 | 0.00 | 10 | 1023.3 | |
| 20260905013911 | 64 | 0.0 | 0.0 | 0.00 | 0.00 | 0.00 | 10 | 1023.3 | |
| 20260905013412 | 64 | 0.0 | 0.0 | 0.00 | 0.00 | 0.00 | 10 | 1023.2 | |
| 20260905012912 | 64 | 0.0 | 0.0 | 0.00 | 0.00 | 0.00 | 10 | 1023.2 | |
| 20260905012412 | 64 | 0.0 | 0.0 | 0.00 | 0.00 | 0.00 | 10 | 1023.2 | |
| 20260905011912 | 64 | 0.0 | 0.0 | 0.00 | 0.00 | 0.00 | 10 | 1023.2 | |
| 20260905011411 | 64 | 0.0 | 0.0 | 0.00 | 0.00 | 0.00 | 10 | 1023.1 | |
| 20260905010912 | 64 | 0.0 | 0.0 | 0.00 | 0.00 | 0.00 | 10 | 1023.1 | |
| 20260905010412 | 64 | 0.0 | 0.0 | 0.00 | 0.00 | 0.00 | 10 | 1023.2 | |
| 20260905005912 | 64 | 0.0 | 0.0 | 0.00 | 0.00 | 0.00 | 10 | 1023.1 | |
| 20260905005412 | 64 | 0.0 | 0.0 | 0.00 | 0.00 | 0.00 | 10 | 1023.2 | |
| 20260905004912 | 64 | 0.0 | 0.0 | 0.00 | 0.00 | 0.00 | 10 | 1023.0 | |
| 20260905004411 | 64 | 0.0 | 0.0 | 0.00 | 0.00 | 0.00 | 10 | 1023.1 | |
| 20260905003911 | 64 | 0.0 | 0.0 | 0.00 | 0.00 | 0.00 | 10 | 1023.0 | |
| 20260905003411 | 64 | 0.0 | 0.0 | 0.00 | 0.00 | 0.00 | 10 | 1023.0 | |
| 20260905002912 | 64 | 0.0 | 0.0 | 0.00 | 0.00 | 0.00 | 10 | 1022.9 | |
| 20260905001411 | 64 | 0.0 | 0.0 | 0.00 | 0.00 | 0.00 | 10 | 1022.8 | |
| 20260905000911 | 64 | 0.0 | 0.0 | 0.00 | 0.00 | 0.00 | 10 | 1022.7 | |
| 20260905000412 | 64 | 0.0 | 0.0 | 0.00 | 0.00 | 0.00 | 10 | 1022.7 | |
| 20260904235912 | 64 | 0.0 | 0.0 | 0.00 | 0.00 | 0.00 | 10 | 1022.6 | |
| 20260904235411 | 64 | 0.0 | 0.0 | 0.00 | 0.00 | 0.00 | 10 | 1022.7 | |
| 20260904234911 | 64 | 0.0 | 0.0 | 0.00 | 0.00 | 0.00 | 10 | 1022.5 | |
| 20260904233912 | 64 | 0.0 | 0.0 | 0.00 | 0.00 | 0.00 | 10 | 1022.5 | |
| 20260904233412 | 64 | 0.0 | 0.0 | 0.00 | 0.00 | 0.00 | 10 | 1022.5 | |
| 20260904232912 | 64 | 0.0 | 0.0 | 0.00 | 0.00 | 0.00 | 10 | 1022.6 | |
| 20260904232412 | 64 | 0.0 | 0.0 | 0.00 | 0.00 | 0.00 | 10 | 1022.7 | |
| 20260904231911 | 64 | 0.0 | 0.0 | 0.00 | 0.00 | 0.00 | 10 | 1022.6 | |
| 20260904231412 | 64 | 0.0 | 0.0 | 0.00 | 0.00 | 0.00 | 10 | 1022.6 | |
| 20260904230912 | 64 | 0.0 | 0.0 | 0.00 | 0.00 | 0.00 | 10 | 1022.5 | |
| 20260904230413 | 64 | 0.0 | 0.0 | 0.00 | 0.00 | 0.00 | 10 | 1022.4 | |
| 20260904225913 | 64 | 0.0 | 0.0 | 0.00 | 0.00 | 0.00 | 10 | 1022.3 | |
| 20260904225411 | 64 | 0.0 | 0.0 | 0.00 | 0.00 | 0.00 | 10 | 1022.3 | |
| 20260904223912 | 64 | 0.0 | 0.0 | 0.00 | 0.00 | 0.00 | 10 | 1022.4 | |
| 20260904223412 | 64 | 0.0 | 0.0 | 0.00 | 0.00 | 0.00 | 10 | 1022.6 | |
| 20260904222912 | 64 | 0.0 | 0.0 | 0.00 | 0.00 | 0.00 | 10 | 1022.5 | |
| 20260904222411 | 64 | 0.0 | 0.0 | 0.00 | 0.00 | 0.00 | 10 | 1022.3 | |
| 20260904221912 | 64 | 0.0 | 0.0 | 0.00 | 0.00 | 0.00 | 10 | 1022.2 | |
| 20260904221415 | 65 | 0.0 | 0.0 | 0.00 | 0.00 | 0.00 | 10 | 1022.2 | |
| 20260904220915 | 65 | 0.0 | 0.0 | 0.00 | 0.00 | 0.00 | 10 | 1022.1 | |
| 20260904220412 | 65 | 0.0 | 0.0 | 0.00 | 0.00 | 0.00 | 10 | 1022.1 | |
| 20260904215913 | 65 | 0.0 | 0.0 | 0.00 | 0.00 | 0.00 | 10 | 1022.2 | |
| 20260904215412 | 65 | 0.0 | 0.0 | 0.00 | 0.00 | 0.00 | 10 | 1022.2 | |
| 20260904214912 | 66 | 0.0 | 0.0 | 0.00 | 0.00 | 0.00 | 10 | 1022.2 | |
| 20260904214412 | 66 | 0.0 | 0.0 | 0.00 | 0.00 | 0.00 | 10 | 1022.2 | |
| 20260904213913 | 66 | 0.0 | 0.0 | 0.00 | 0.00 | 0.00 | 10 | 1022.2 | |
| 20260904213412 | 66 | 0.0 | 0.0 | 0.00 | 0.00 | 0.00 | 10 | 1022.1 | |
| 20260904212411 | 66 | 0.0 | 0.0 | 0.00 | 0.00 | 0.00 | 10 | 1022.1 | |
| 20260904210912 | 67 | 0.0 | 0.0 | 0.00 | 0.00 | 0.00 | 10 | 1021.9 | |
| 20260904205913 | 67 | 0.0 | 0.0 | 0.00 | 0.00 | 0.00 | 10 | 1021.9 | |
| 20260904205413 | 68 | 0.0 | 0.0 | 0.00 | 0.00 | 0.00 | 10 | 1021.9 | |
| 20260904204912 | 68 | 0.0 | 0.0 | 0.00 | 0.00 | 0.00 | 10 | 1021.8 | |
| 20260904204413 | 68 | 0.0 | 0.0 | 0.00 | 0.00 | 0.00 | 10 | 1021.8 | |
| 20260904203912 | 68 | 0.0 | 0.0 | 0.00 | 0.00 | 0.00 | 10 | 1021.8 | |
| 20260904203411 | 68 | 0.0 | 0.0 | 0.00 | 0.00 | 0.00 | 10 | 1021.9 | |
| 20260904202412 | 68 | 0.0 | 0.0 | 0.00 | 0.00 | 0.00 | 10 | 1021.6 | |
| 20260904201912 | 68 | 0.0 | 0.0 | 0.00 | 0.00 | 0.00 | 10 | 1021.7 | |
| 20260904201411 | 68 | 0.0 | 0.0 | 0.00 | 0.00 | 0.00 | 10 | 1021.6 | |
| 20260904200412 | 69 | 0.0 | 0.0 | 0.00 | 0.00 | 0.00 | 10 | 1021.5 | |
| 20260904195413 | 69 | 0.0 | 0.0 | 0.00 | 0.00 | 0.00 | 10 | 1021.4 | |
| 20260904194911 | 69 | 0.0 | 0.0 | 0.00 | 0.00 | 0.00 | 10 | 1021.3 | |
| 20260904194411 | 69 | 0.0 | 0.0 | 0.00 | 0.00 | 0.00 | 10 | 1021.3 | |
| 20260904193412 | 69 | 0.0 | 0.0 | 0.00 | 0.00 | 0.00 | 10 | 1020.9 | |
| 20260904192411 | 70 | 0.0 | 0.0 | 0.00 | 0.00 | 0.00 | 99 | 1021.0 | |
| 20260904191911 | 70 | 0.0 | 0.0 | 0.00 | 0.00 | 0.00 | 95 | 1020.9 | |
| 20260904191411 | 70 | 0.0 | 0.0 | 0.00 | 0.00 | 0.00 | 91 | 1020.9 | |
| 20260904190911 | 71 | 0.0 | 0.0 | 0.00 | 0.00 | 0.00 | 89 | 1020.7 | |
| 20260904190412 | 71 | 0.0 | 0.0 | 0.00 | 0.00 | 0.00 | 86 | 1020.7 | |
| 20260904185912 | 71 | 0.0 | 0.0 | 0.00 | 0.00 | 0.00 | 83 | 1020.5 | |
| 20260904185411 | 72 | 0.0 | 0.0 | 0.00 | 0.00 | 0.00 | 79 | 1020.5 | |
| 20260904184912 | 72 | 0.0 | 0.0 | 0.00 | 0.00 | 0.00 | 74 | 1020.4 | |
| 20260904183411 | 74 | 0.0 | 0.0 | 0.00 | 0.00 | 0.00 | 60 | 1020.0 | |
| 20260904182911 | 75 | 0.0 | 0.0 | 0.00 | 0.00 | 0.00 | 56 | 1019.8 | |
| 20260904182412 | 76 | 0.0 | 0.0 | 0.00 | 0.00 | 0.00 | 51 | 1019.7 | |
| 20260904181911 | 77 | 0.0 | 0.0 | 0.00 | 0.00 | 0.00 | 47 | 1019.5 | |
| 20260904181411 | 77 | 0.0 | 0.0 | 0.00 | 0.00 | 0.00 | 45 | 1019.5 | |
| 20260904180912 | 78 | 0.0 | 0.0 | 0.00 | 0.00 | 0.00 | 43 | 1019.5 | |
| 20260904180412 | 79 | 0.0 | 0.0 | 0.00 | 0.00 | 0.00 | 42 | 1019.4 | |
| 20260904175912 | 79 | 0.0 | 0.0 | 0.00 | 0.00 | 0.00 | 41 | 1019.3 | |
| 20260904175411 | 80 | 0.0 | 0.0 | 0.00 | 0.00 | 0.00 | 39 | 1019.3 | |
| 20260904174411 | 81 | 0.0 | 0.0 | 0.00 | 0.00 | 0.00 | 37 | 1019.0 | |
| 20260904172911 | 83 | 0.0 | 0.0 | 0.00 | 0.00 | 0.00 | 35 | 1018.9 | |
| 20260904172411 | 83 | 0.0 | 0.0 | 0.00 | 0.00 | 0.00 | 35 | 1018.8 | |
| 20260904171911 | 84 | 0.0 | 0.0 | 0.00 | 0.00 | 0.00 | 35 | 1018.8 | |
| 20260904171412 | 84 | 0.0 | 0.0 | 0.00 | 0.00 | 0.00 | 35 | 1018.7 | |
| 20260904170913 | 84 | 0.0 | 0.0 | 0.00 | 0.00 | 0.00 | 35 | 1018.6 | |
| 20260904170411 | 84 | 0.0 | 0.0 | 0.00 | 0.00 | 0.00 | 35 | 1018.6 | |
| 20260904165412 | 85 | 0.0 | 0.0 | 0.00 | 0.00 | 0.00 | 35 | 1018.6 | |
| 20260904164912 | 85 | 0.0 | 0.0 | 0.00 | 0.00 | 0.00 | 36 | 1018.6 | |
| 20260904164411 | 85 | 0.0 | 0.0 | 0.00 | 0.00 | 0.00 | 37 | 1018.6 | |
| 20260904163912 | 85 | 0.0 | 0.0 | 0.00 | 0.00 | 0.00 | 38 | 1018.4 | |
| 20260904163412 | 86 | 0.0 | 0.0 | 0.00 | 0.00 | 0.00 | 39 | 1018.5 | |
| 20260904162912 | 86 | 0.0 | 0.0 | 0.00 | 0.00 | 0.00 | 39 | 1018.5 | |
| 20260904162413 | 86 | 0.0 | 0.0 | 0.00 | 0.00 | 0.00 | 38 | 1018.5 | |
| 20260904161912 | 86 | 0.0 | 0.0 | 0.00 | 0.00 | 0.00 | 37 | 1018.5 | |
| 20260904161411 | 86 | 0.0 | 0.0 | 0.00 | 0.00 | 0.00 | 37 | 1018.5 | |
| 20260904160911 | 87 | 0.0 | 0.0 | 0.00 | 0.00 | 0.00 | 37 | 1018.4 | |
| 20260904155412 | 88 | 0.0 | 0.0 | 0.00 | 0.00 | 0.00 | 36 | 1018.3 | |
| 20260904154912 | 88 | 0.0 | 0.0 | 0.00 | 0.00 | 0.00 | 36 | 1018.4 | |
| 20260904154412 | 88 | 0.0 | 0.0 | 0.00 | 0.00 | 0.00 | 36 | 1018.3 | |
| 20260904153912 | 88 | 0.0 | 0.0 | 0.00 | 0.00 | 0.00 | 35 | 1018.2 | |
| 20260904153412 | 88 | 0.0 | 0.0 | 0.00 | 0.00 | 0.00 | 35 | 1018.2 | |
| 20260904152912 | 89 | 0.0 | 0.0 | 0.00 | 0.00 | 0.00 | 35 | 1018.3 | |
| 20260904152412 | 89 | 0.0 | 0.0 | 0.00 | 0.00 | 0.00 | 35 | 1018.2 | |
| 20260904151911 | 89 | 0.0 | 0.0 | 0.00 | 0.00 | 0.00 | 36 | 1018.1 | |
| 20260904150413 | 90 | 0.0 | 0.0 | 0.00 | 0.00 | 0.00 | 38 | 1018.1 | |
| 20260904145912 | 89 | 0.0 | 0.0 | 0.00 | 0.00 | 0.00 | 36 | 1018.1 | |
| 20260904145412 | 90 | 0.0 | 0.0 | 0.00 | 0.00 | 0.00 | 37 | 1018.2 | |
| 20260904144912 | 90 | 0.0 | 0.0 | 0.00 | 0.00 | 0.00 | 37 | 1018.1 | |
| 20260904144412 | 89 | 0.0 | 0.0 | 0.00 | 0.00 | 0.00 | 36 | 1018.1 | |
| 20260904143912 | 90 | 0.0 | 0.0 | 0.00 | 0.00 | 0.00 | 37 | 1018.1 | |
| 20260904143412 | 90 | 0.0 | 0.0 | 0.00 | 0.00 | 0.00 | 38 | 1018.1 | |
| 20260904142911 | 90 | 0.0 | 0.0 | 0.00 | 0.00 | 0.00 | 37 | 1018.1 | |
| 20260904142412 | 90 | 0.0 | 0.0 | 0.00 | 0.00 | 0.00 | 38 | 1018.1 | |
| 20260904141412 | 90 | 0.0 | 0.0 | 0.00 | 0.00 | 0.00 | 37 | 1018.2 | |
| 20260904140912 | 90 | 0.0 | 0.0 | 0.00 | 0.00 | 0.00 | 37 | 1018.1 | |
| 20260904140411 | 90 | 0.0 | 0.0 | 0.00 | 0.00 | 0.00 | 38 | 1018.1 | |
| 20260904135411 | 90 | 0.0 | 0.0 | 0.00 | 0.00 | 0.00 | 39 | 1018.3 | |
| 20260904134412 | 90 | 0.0 | 0.0 | 0.00 | 0.00 | 0.00 | 38 | 1018.3 | |
| 20260904133913 | 90 | 0.0 | 0.0 | 0.00 | 0.00 | 0.00 | 38 | 1018.2 | |
| 20260904133412 | 90 | 0.0 | 0.0 | 0.00 | 0.00 | 0.00 | 39 | 1018.3 | |
| 20260904132912 | 90 | 0.0 | 0.0 | 0.00 | 0.00 | 0.00 | 40 | 1018.4 | |
| 20260904132412 | 90 | 0.0 | 0.0 | 0.00 | 0.00 | 0.00 | 41 | 1018.3 | |
| 20260904131912 | 90 | 0.0 | 0.0 | 0.00 | 0.00 | 0.00 | 40 | 1018.4 | |
| 20260904131412 | 91 | 0.0 | 0.0 | 0.00 | 0.00 | 0.00 | 41 | 1018.4 | |
| 20260904130912 | 90 | 0.0 | 0.0 | 0.00 | 0.00 | 0.00 | 41 | 1018.5 | |
| 20260904130411 | 91 | 0.0 | 0.0 | 0.00 | 0.00 | 0.00 | 41 | 1018.4 | |
| 20260904125911 | 89 | 0.0 | 0.0 | 0.00 | 0.00 | 0.00 | 42 | 1018.5 | |
| 20260904124412 | 88 | 0.0 | 0.0 | 0.00 | 0.00 | 0.00 | 42 | 1018.8 | |
| 20260904123913 | 89 | 0.0 | 0.0 | 0.00 | 0.00 | 0.00 | 43 | 1018.9 | |
| 20260904123412 | 90 | 0.0 | 0.0 | 0.00 | 0.00 | 0.00 | 44 | 1018.7 | |
| 20260904122912 | 90 | 0.0 | 0.0 | 0.00 | 0.00 | 0.00 | 44 | 1018.7 | |
| 20260904122412 | 90 | 0.0 | 0.0 | 0.00 | 0.00 | 0.00 | 46 | 1018.8 | |
| 20260904121913 | 87 | 0.0 | 0.0 | 0.00 | 0.00 | 0.00 | 48 | 1019.0 | |
| 20260904121411 | 87 | 0.0 | 0.0 | 0.00 | 0.00 | 0.00 | 51 | 1019.0 | |
| 20260904120911 | 87 | 0.0 | 0.0 | 0.00 | 0.00 | 0.00 | 52 | 1019.1 | |
| 20260904120411 | 86 | 0.0 | 0.0 | 0.00 | 0.00 | 0.00 | 52 | 1019.1 | |
| 20260904115912 | 86 | 0.0 | 0.0 | 0.00 | 0.00 | 0.00 | 52 | 1019.2 | |
| 20260904114412 | 86 | 0.0 | 0.0 | 0.00 | 0.00 | 0.00 | 53 | 1019.3 | |
| 20260904113911 | 85 | 0.0 | 0.0 | 0.00 | 0.00 | 0.00 | 55 | 1019.4 | |
| 20260904112912 | 85 | 0.0 | 0.0 | 0.00 | 0.00 | 0.00 | 56 | 1019.5 | |
| 20260904112412 | 85 | 0.0 | 0.0 | 0.00 | 0.00 | 0.00 | 58 | 1019.5 | |
| 20260904111911 | 84 | 0.0 | 0.0 | 0.00 | 0.00 | 0.00 | 61 | 1019.5 | |
| 20260904111411 | 84 | 0.0 | 0.0 | 0.00 | 0.00 | 0.00 | 63 | 1019.6 | |
| 20260904110413 | 84 | 0.0 | 0.0 | 0.00 | 0.00 | 0.00 | 67 | 1019.7 | |
| 20260904105912 | 83 | 0.0 | 0.0 | 0.00 | 0.00 | 0.00 | 68 | 1019.8 | |
| 20260904105412 | 83 | 0.0 | 0.0 | 0.00 | 0.00 | 0.00 | 71 | 1019.8 | |
| 20260904104912 | 83 | 0.0 | 0.0 | 0.00 | 0.00 | 0.00 | 72 | 1019.8 | |
| 20260904104412 | 82 | 0.0 | 0.0 | 0.00 | 0.00 | 0.00 | 73 | 1019.9 | |
| 20260904103912 | 82 | 0.0 | 0.0 | 0.00 | 0.00 | 0.00 | 80 | 1020.0 | |
| 20260904103413 | 82 | 0.0 | 0.0 | 0.00 | 0.00 | 0.00 | 83 | 1019.9 | |
| 20260904102912 | 82 | 0.0 | 0.0 | 0.00 | 0.00 | 0.00 | 87 | 1020.1 | |
| 20260904102412 | 81 | 0.0 | 0.0 | 0.00 | 0.00 | 0.00 | 88 | 1020.2 |